sensor_id;sensor_type;location;lat;lon;timestamp;P1;durP1;ratioP1;P2;durP2;ratioP2
23252;SDS011;11795;47.054;15.408;2022-10-16T00:00:00;51.7;;;43.5;;
23252;SDS011;11795;47.054;15.408;2022-10-16T00:02:00;53.9;;;43.5;;
23252;SDS011;11795;47.054;15.408;2022-10-16T00:04:00;53.9;;;43.5;;
23252;SDS011;11795;47.054;15.408;2022-10-16T00:06:00;53.9;;;43.5;;
23252;SDS011;11795;47.054;15.408;2022-10-16T00:08:00;48.3;;;40.7;;
23252;SDS011;11795;47.054;15.408;2022-10-16T00:10:00;48.3;;;40.7;;
23252;SDS011;11795;47.054;15.408;2022-10-16T00:12:00;47.0;;;39.7;;
23252;SDS011;11795;47.054;15.408;2022-10-16T00:14:00;47.0;;;39.7;;
23252;SDS011;11795;47.054;15.408;2022-10-16T00:16:00;47.0;;;39.7;;
23252;SDS011;11795;47.054;15.408;2022-10-16T00:18:00;50.3;;;41.7;;
23252;SDS011;11795;47.054;15.408;2022-10-16T00:20:00;50.3;;;41.7;;
23252;SDS011;11795;47.054;15.408;2022-10-16T00:22:00;49.8;;;41.6;;
23252;SDS011;11795;47.054;15.408;2022-10-16T00:24:01;49.8;;;41.6;;
23252;SDS011;11795;47.054;15.408;2022-10-16T00:26:01;49.8;;;41.6;;
23252;SDS011;11795;47.054;15.408;2022-10-16T00:28:00;44.7;;;39.1;;
23252;SDS011;11795;47.054;15.408;2022-10-16T00:30:00;44.7;;;39.1;;
23252;SDS011;11795;47.054;15.408;2022-10-16T00:32:00;49.0;;;40.3;;
23252;SDS011;11795;47.054;15.408;2022-10-16T00:34:00;49.0;;;40.3;;
23252;SDS011;11795;47.054;15.408;2022-10-16T00:36:00;49.0;;;40.3;;
23252;SDS011;11795;47.054;15.408;2022-10-16T00:38:00;48.0;;;41.1;;
23252;SDS011;11795;47.054;15.408;2022-10-16T00:40:00;48.0;;;41.1;;
23252;SDS011;11795;47.054;15.408;2022-10-16T00:42:00;49.6;;;41.0;;
23252;SDS011;11795;47.054;15.408;2022-10-16T00:44:01;49.6;;;41.0;;
23252;SDS011;11795;47.054;15.408;2022-10-16T00:46:00;49.6;;;41.0;;
23252;SDS011;11795;47.054;15.408;2022-10-16T00:48:00;47.9;;;40.2;;
23252;SDS011;11795;47.054;15.408;2022-10-16T00:50:03;47.9;;;40.2;;
23252;SDS011;11795;47.054;15.408;2022-10-16T00:52:00;42.9;;;38.1;;
23252;SDS011;11795;47.054;15.408;2022-10-16T00:54:00;42.9;;;38.1;;
23252;SDS011;11795;47.054;15.408;2022-10-16T00:56:00;42.9;;;38.1;;
23252;SDS011;11795;47.054;15.408;2022-10-16T00:58:00;43.8;;;39.0;;
23252;SDS011;11795;47.054;15.408;2022-10-16T01:00:00;43.8;;;39.0;;
23252;SDS011;11795;47.054;15.408;2022-10-16T01:02:00;43.3;;;37.0;;
23252;SDS011;11795;47.054;15.408;2022-10-16T01:04:00;43.3;;;37.0;;
23252;SDS011;11795;47.054;15.408;2022-10-16T01:06:04;43.3;;;37.0;;
23252;SDS011;11795;47.054;15.408;2022-10-16T01:08:01;51.6;;;43.4;;
23252;SDS011;11795;47.054;15.408;2022-10-16T01:10:06;51.6;;;43.4;;
23252;SDS011;11795;47.054;15.408;2022-10-16T01:12:03;44.0;;;39.2;;
23252;SDS011;11795;47.054;15.408;2022-10-16T01:14:02;44.0;;;39.2;;
23252;SDS011;11795;47.054;15.408;2022-10-16T01:16:01;44.0;;;39.2;;
23252;SDS011;11795;47.054;15.408;2022-10-16T01:18:00;47.1;;;40.8;;
23252;SDS011;11795;47.054;15.408;2022-10-16T01:20:04;47.1;;;40.8;;
23252;SDS011;11795;47.054;15.408;2022-10-16T01:22:00;45.2;;;40.1;;
23252;SDS011;11795;47.054;15.408;2022-10-16T01:24:01;45.2;;;40.1;;
23252;SDS011;11795;47.054;15.408;2022-10-16T01:26:09;45.2;;;40.1;;
23252;SDS011;11795;47.054;15.408;2022-10-16T01:28:00;45.0;;;40.1;;
23252;SDS011;11795;47.054;15.408;2022-10-16T01:30:02;45.0;;;40.1;;
23252;SDS011;11795;47.054;15.408;2022-10-16T01:32:01;46.7;;;40.8;;
23252;SDS011;11795;47.054;15.408;2022-10-16T01:34:02;46.7;;;40.8;;
23252;SDS011;11795;47.054;15.408;2022-10-16T01:36:02;46.7;;;40.8;;
23252;SDS011;11795;47.054;15.408;2022-10-16T01:38:01;46.5;;;39.8;;
23252;SDS011;11795;47.054;15.408;2022-10-16T01:40:00;46.5;;;39.8;;
23252;SDS011;11795;47.054;15.408;2022-10-16T01:42:01;46.6;;;41.2;;
23252;SDS011;11795;47.054;15.408;2022-10-16T01:44:01;46.6;;;41.2;;
23252;SDS011;11795;47.054;15.408;2022-10-16T01:46:00;46.6;;;41.2;;
23252;SDS011;11795;47.054;15.408;2022-10-16T01:48:00;41.8;;;37.2;;
23252;SDS011;11795;47.054;15.408;2022-10-16T01:50:00;41.8;;;37.2;;
23252;SDS011;11795;47.054;15.408;2022-10-16T01:52:02;47.6;;;40.3;;
23252;SDS011;11795;47.054;15.408;2022-10-16T01:54:00;47.6;;;40.3;;
23252;SDS011;11795;47.054;15.408;2022-10-16T01:56:00;47.6;;;40.3;;
23252;SDS011;11795;47.054;15.408;2022-10-16T01:58:00;50.2;;;41.4;;
23252;SDS011;11795;47.054;15.408;2022-10-16T02:00:01;50.2;;;41.4;;
23252;SDS011;11795;47.054;15.408;2022-10-16T02:02:01;44.7;;;39.8;;
23252;SDS011;11795;47.054;15.408;2022-10-16T02:04:02;44.7;;;39.8;;
23252;SDS011;11795;47.054;15.408;2022-10-16T02:06:00;44.7;;;39.8;;
23252;SDS011;11795;47.054;15.408;2022-10-16T02:08:00;51.8;;;43.4;;
23252;SDS011;11795;47.054;15.408;2022-10-16T02:10:00;51.8;;;43.4;;
23252;SDS011;11795;47.054;15.408;2022-10-16T02:12:03;49.1;;;42.0;;
23252;SDS011;11795;47.054;15.408;2022-10-16T02:14:01;49.1;;;42.0;;
23252;SDS011;11795;47.054;15.408;2022-10-16T02:16:00;49.1;;;42.0;;
23252;SDS011;11795;47.054;15.408;2022-10-16T02:18:00;42.9;;;37.4;;
23252;SDS011;11795;47.054;15.408;2022-10-16T02:20:00;42.9;;;37.4;;
23252;SDS011;11795;47.054;15.408;2022-10-16T02:22:01;45.7;;;39.0;;
23252;SDS011;11795;47.054;15.408;2022-10-16T02:24:01;45.7;;;39.0;;
23252;SDS011;11795;47.054;15.408;2022-10-16T02:26:00;45.7;;;39.0;;
23252;SDS011;11795;47.054;15.408;2022-10-16T02:28:00;48.4;;;41.3;;
23252;SDS011;11795;47.054;15.408;2022-10-16T02:30:02;48.4;;;41.3;;
23252;SDS011;11795;47.054;15.408;2022-10-16T02:32:00;46.2;;;40.3;;
23252;SDS011;11795;47.054;15.408;2022-10-16T02:34:00;46.2;;;40.3;;
23252;SDS011;11795;47.054;15.408;2022-10-16T02:36:00;46.2;;;40.3;;
23252;SDS011;11795;47.054;15.408;2022-10-16T02:38:00;49.0;;;40.8;;
23252;SDS011;11795;47.054;15.408;2022-10-16T02:40:00;49.0;;;40.8;;
23252;SDS011;11795;47.054;15.408;2022-10-16T02:42:00;46.8;;;40.1;;
23252;SDS011;11795;47.054;15.408;2022-10-16T02:44:00;46.8;;;40.1;;
23252;SDS011;11795;47.054;15.408;2022-10-16T02:46:00;46.8;;;40.1;;
23252;SDS011;11795;47.054;15.408;2022-10-16T02:48:00;43.6;;;37.9;;
23252;SDS011;11795;47.054;15.408;2022-10-16T02:50:00;43.6;;;37.9;;
23252;SDS011;11795;47.054;15.408;2022-10-16T02:52:00;43.5;;;38.9;;
23252;SDS011;11795;47.054;15.408;2022-10-16T02:54:00;43.5;;;38.9;;
23252;SDS011;11795;47.054;15.408;2022-10-16T02:56:00;43.5;;;38.9;;
23252;SDS011;11795;47.054;15.408;2022-10-16T02:58:00;43.9;;;39.1;;
23252;SDS011;11795;47.054;15.408;2022-10-16T03:00:00;43.9;;;39.1;;
23252;SDS011;11795;47.054;15.408;2022-10-16T03:02:00;39.8;;;35.7;;
23252;SDS011;11795;47.054;15.408;2022-10-16T03:04:00;39.8;;;35.7;;
23252;SDS011;11795;47.054;15.408;2022-10-16T03:06:00;39.8;;;35.7;;
23252;SDS011;11795;47.054;15.408;2022-10-16T03:08:00;39.6;;;35.3;;
23252;SDS011;11795;47.054;15.408;2022-10-16T03:10:00;39.6;;;35.3;;
23252;SDS011;11795;47.054;15.408;2022-10-16T03:12:00;36.4;;;32.6;;
23252;SDS011;11795;47.054;15.408;2022-10-16T03:14:00;36.4;;;32.6;;
23252;SDS011;11795;47.054;15.408;2022-10-16T03:16:00;36.4;;;32.6;;
23252;SDS011;11795;47.054;15.408;2022-10-16T03:18:00;41.2;;;36.5;;
23252;SDS011;11795;47.054;15.408;2022-10-16T03:20:00;41.2;;;36.5;;
23252;SDS011;11795;47.054;15.408;2022-10-16T03:22:00;43.3;;;38.5;;
23252;SDS011;11795;47.054;15.408;2022-10-16T03:24:00;43.3;;;38.5;;
23252;SDS011;11795;47.054;15.408;2022-10-16T03:26:00;43.3;;;38.5;;
23252;SDS011;11795;47.054;15.408;2022-10-16T03:28:00;46.4;;;38.6;;
23252;SDS011;11795;47.054;15.408;2022-10-16T03:30:00;46.4;;;38.6;;
23252;SDS011;11795;47.054;15.408;2022-10-16T03:32:00;52.7;;;42.5;;
23252;SDS011;11795;47.054;15.408;2022-10-16T03:34:00;52.7;;;42.5;;
23252;SDS011;11795;47.054;15.408;2022-10-16T03:36:00;52.7;;;42.5;;
23252;SDS011;11795;47.054;15.408;2022-10-16T03:38:00;54.2;;;43.4;;
23252;SDS011;11795;47.054;15.408;2022-10-16T03:40:00;54.2;;;43.4;;
23252;SDS011;11795;47.054;15.408;2022-10-16T03:42:00;53.1;;;43.0;;
23252;SDS011;11795;47.054;15.408;2022-10-16T03:44:00;53.1;;;43.0;;
23252;SDS011;11795;47.054;15.408;2022-10-16T03:46:00;53.1;;;43.0;;
23252;SDS011;11795;47.054;15.408;2022-10-16T03:48:00;53.1;;;43.3;;
23252;SDS011;11795;47.054;15.408;2022-10-16T03:50:00;53.1;;;43.3;;
23252;SDS011;11795;47.054;15.408;2022-10-16T03:52:00;52.0;;;41.7;;
23252;SDS011;11795;47.054;15.408;2022-10-16T03:54:00;52.0;;;41.7;;
23252;SDS011;11795;47.054;15.408;2022-10-16T03:56:00;52.0;;;41.7;;
23252;SDS011;11795;47.054;15.408;2022-10-16T03:58:00;60.5;;;46.9;;
23252;SDS011;11795;47.054;15.408;2022-10-16T04:00:00;60.5;;;46.9;;
23252;SDS011;11795;47.054;15.408;2022-10-16T04:02:00;55.6;;;44.8;;
23252;SDS011;11795;47.054;15.408;2022-10-16T04:04:00;55.6;;;44.8;;
23252;SDS011;11795;47.054;15.408;2022-10-16T04:06:00;55.6;;;44.8;;
23252;SDS011;11795;47.054;15.408;2022-10-16T04:08:00;53.2;;;43.7;;
23252;SDS011;11795;47.054;15.408;2022-10-16T04:10:00;53.2;;;43.7;;
23252;SDS011;11795;47.054;15.408;2022-10-16T04:12:00;60.8;;;46.5;;
23252;SDS011;11795;47.054;15.408;2022-10-16T04:14:00;60.8;;;46.5;;
23252;SDS011;11795;47.054;15.408;2022-10-16T04:16:00;60.8;;;46.5;;
23252;SDS011;11795;47.054;15.408;2022-10-16T04:18:00;63.8;;;47.7;;
23252;SDS011;11795;47.054;15.408;2022-10-16T04:20:00;63.8;;;47.7;;
23252;SDS011;11795;47.054;15.408;2022-10-16T04:22:00;60.4;;;47.1;;
23252;SDS011;11795;47.054;15.408;2022-10-16T04:24:00;60.4;;;47.1;;
23252;SDS011;11795;47.054;15.408;2022-10-16T04:26:00;60.4;;;47.1;;
23252;SDS011;11795;47.054;15.408;2022-10-16T04:28:00;83.8;;;51.9;;
23252;SDS011;11795;47.054;15.408;2022-10-16T04:30:00;83.8;;;51.9;;
23252;SDS011;11795;47.054;15.408;2022-10-16T04:32:00;116.3;;;51.8;;
23252;SDS011;11795;47.054;15.408;2022-10-16T04:34:00;116.3;;;51.8;;
23252;SDS011;11795;47.054;15.408;2022-10-16T04:36:00;116.3;;;51.8;;
23252;SDS011;11795;47.054;15.408;2022-10-16T04:38:00;59.6;;;47.5;;
23252;SDS011;11795;47.054;15.408;2022-10-16T04:40:00;59.6;;;47.5;;
23252;SDS011;11795;47.054;15.408;2022-10-16T04:42:00;67.7;;;48.2;;
23252;SDS011;11795;47.054;15.408;2022-10-16T04:44:00;67.7;;;48.2;;
23252;SDS011;11795;47.054;15.408;2022-10-16T04:46:00;67.7;;;48.2;;
23252;SDS011;11795;47.054;15.408;2022-10-16T04:48:00;68.6;;;49.6;;
23252;SDS011;11795;47.054;15.408;2022-10-16T04:50:02;68.6;;;49.6;;
23252;SDS011;11795;47.054;15.408;2022-10-16T04:52:00;59.5;;;46.8;;
23252;SDS011;11795;47.054;15.408;2022-10-16T04:54:00;59.5;;;46.8;;
23252;SDS011;11795;47.054;15.408;2022-10-16T04:56:00;59.5;;;46.8;;
23252;SDS011;11795;47.054;15.408;2022-10-16T04:58:00;66.8;;;49.2;;
23252;SDS011;11795;47.054;15.408;2022-10-16T05:00:00;66.8;;;49.2;;
23252;SDS011;11795;47.054;15.408;2022-10-16T05:02:00;59.8;;;47.8;;
23252;SDS011;11795;47.054;15.408;2022-10-16T05:04:00;59.8;;;47.8;;
23252;SDS011;11795;47.054;15.408;2022-10-16T05:06:00;59.8;;;47.8;;
23252;SDS011;11795;47.054;15.408;2022-10-16T05:08:00;54.6;;;44.4;;
23252;SDS011;11795;47.054;15.408;2022-10-16T05:10:00;54.6;;;44.4;;
23252;SDS011;11795;47.054;15.408;2022-10-16T05:12:00;53.6;;;44.9;;
23252;SDS011;11795;47.054;15.408;2022-10-16T05:14:00;53.6;;;44.9;;
23252;SDS011;11795;47.054;15.408;2022-10-16T05:16:00;53.6;;;44.9;;
23252;SDS011;11795;47.054;15.408;2022-10-16T05:18:00;52.8;;;43.7;;
23252;SDS011;11795;47.054;15.408;2022-10-16T05:20:00;52.8;;;43.7;;
23252;SDS011;11795;47.054;15.408;2022-10-16T05:22:00;52.8;;;43.7;;
23252;SDS011;11795;47.054;15.408;2022-10-16T05:24:00;60.2;;;48.4;;
23252;SDS011;11795;47.054;15.408;2022-10-16T05:26:00;60.2;;;48.4;;
23252;SDS011;11795;47.054;15.408;2022-10-16T05:28:00;63.8;;;47.5;;
23252;SDS011;11795;47.054;15.408;2022-10-16T05:30:00;63.8;;;47.5;;
23252;SDS011;11795;47.054;15.408;2022-10-16T05:32:00;63.8;;;47.5;;
23252;SDS011;11795;47.054;15.408;2022-10-16T05:34:00;47.9;;;42.6;;
23252;SDS011;11795;47.054;15.408;2022-10-16T05:36:00;47.9;;;42.6;;
23252;SDS011;11795;47.054;15.408;2022-10-16T05:38:00;46.6;;;40.4;;
23252;SDS011;11795;47.054;15.408;2022-10-16T05:40:01;46.6;;;40.4;;
23252;SDS011;11795;47.054;15.408;2022-10-16T05:42:00;46.6;;;40.4;;
23252;SDS011;11795;47.054;15.408;2022-10-16T05:44:00;52.0;;;43.7;;
23252;SDS011;11795;47.054;15.408;2022-10-16T05:46:03;52.0;;;43.7;;
23252;SDS011;11795;47.054;15.408;2022-10-16T05:48:00;44.7;;;40.0;;
23252;SDS011;11795;47.054;15.408;2022-10-16T05:50:00;44.7;;;40.0;;
23252;SDS011;11795;47.054;15.408;2022-10-16T05:52:00;44.7;;;40.0;;
23252;SDS011;11795;47.054;15.408;2022-10-16T05:54:00;56.8;;;42.2;;
23252;SDS011;11795;47.054;15.408;2022-10-16T05:56:00;56.8;;;42.2;;
23252;SDS011;11795;47.054;15.408;2022-10-16T05:58:00;45.3;;;40.5;;
23252;SDS011;11795;47.054;15.408;2022-10-16T06:00:00;45.3;;;40.5;;
23252;SDS011;11795;47.054;15.408;2022-10-16T06:02:00;45.3;;;40.5;;
23252;SDS011;11795;47.054;15.408;2022-10-16T06:04:00;42.8;;;37.9;;
23252;SDS011;11795;47.054;15.408;2022-10-16T06:06:06;42.8;;;37.9;;
23252;SDS011;11795;47.054;15.408;2022-10-16T06:08:00;40.0;;;35.8;;
23252;SDS011;11795;47.054;15.408;2022-10-16T06:10:00;40.0;;;35.8;;
23252;SDS011;11795;47.054;15.408;2022-10-16T06:12:00;40.0;;;35.8;;
23252;SDS011;11795;47.054;15.408;2022-10-16T06:14:02;40.7;;;36.4;;
23252;SDS011;11795;47.054;15.408;2022-10-16T06:16:00;40.7;;;36.4;;
23252;SDS011;11795;47.054;15.408;2022-10-16T06:18:00;37.6;;;33.7;;
23252;SDS011;11795;47.054;15.408;2022-10-16T06:20:00;37.6;;;33.7;;
23252;SDS011;11795;47.054;15.408;2022-10-16T06:22:00;37.6;;;33.7;;
23252;SDS011;11795;47.054;15.408;2022-10-16T06:24:00;42.4;;;37.8;;
23252;SDS011;11795;47.054;15.408;2022-10-16T06:26:04;42.4;;;37.8;;
23252;SDS011;11795;47.054;15.408;2022-10-16T06:28:00;49.2;;;41.8;;
23252;SDS011;11795;47.054;15.408;2022-10-16T06:30:00;49.2;;;41.8;;
23252;SDS011;11795;47.054;15.408;2022-10-16T06:32:00;49.2;;;41.8;;
23252;SDS011;11795;47.054;15.408;2022-10-16T06:34:00;52.3;;;42.8;;
23252;SDS011;11795;47.054;15.408;2022-10-16T06:36:01;52.3;;;42.8;;
23252;SDS011;11795;47.054;15.408;2022-10-16T06:38:00;46.4;;;40.1;;
23252;SDS011;11795;47.054;15.408;2022-10-16T06:40:00;46.4;;;40.1;;
23252;SDS011;11795;47.054;15.408;2022-10-16T06:42:00;46.4;;;40.1;;
23252;SDS011;11795;47.054;15.408;2022-10-16T06:44:00;51.7;;;41.8;;
23252;SDS011;11795;47.054;15.408;2022-10-16T06:46:00;51.7;;;41.8;;
23252;SDS011;11795;47.054;15.408;2022-10-16T06:48:00;59.8;;;46.1;;
23252;SDS011;11795;47.054;15.408;2022-10-16T06:50:00;59.8;;;46.1;;
23252;SDS011;11795;47.054;15.408;2022-10-16T06:52:01;59.8;;;46.1;;
23252;SDS011;11795;47.054;15.408;2022-10-16T06:54:00;47.4;;;39.7;;
23252;SDS011;11795;47.054;15.408;2022-10-16T06:56:06;47.4;;;39.7;;
23252;SDS011;11795;47.054;15.408;2022-10-16T06:58:00;49.5;;;41.0;;
23252;SDS011;11795;47.054;15.408;2022-10-16T07:00:00;49.5;;;41.0;;
23252;SDS011;11795;47.054;15.408;2022-10-16T07:02:00;49.5;;;41.0;;
23252;SDS011;11795;47.054;15.408;2022-10-16T07:04:00;48.5;;;41.0;;
23252;SDS011;11795;47.054;15.408;2022-10-16T07:06:01;48.5;;;41.0;;
23252;SDS011;11795;47.054;15.408;2022-10-16T07:08:00;46.2;;;39.8;;
23252;SDS011;11795;47.054;15.408;2022-10-16T07:10:00;46.2;;;39.8;;
23252;SDS011;11795;47.054;15.408;2022-10-16T07:12:00;46.2;;;39.8;;
23252;SDS011;11795;47.054;15.408;2022-10-16T07:14:00;51.7;;;42.1;;
23252;SDS011;11795;47.054;15.408;2022-10-16T07:16:03;51.7;;;42.1;;
23252;SDS011;11795;47.054;15.408;2022-10-16T07:18:00;51.3;;;42.8;;
23252;SDS011;11795;47.054;15.408;2022-10-16T07:20:00;51.3;;;42.8;;
23252;SDS011;11795;47.054;15.408;2022-10-16T07:22:00;51.3;;;42.8;;
23252;SDS011;11795;47.054;15.408;2022-10-16T07:24:01;49.4;;;42.0;;
23252;SDS011;11795;47.054;15.408;2022-10-16T07:26:00;49.4;;;42.0;;
23252;SDS011;11795;47.054;15.408;2022-10-16T07:28:00;49.7;;;42.7;;
23252;SDS011;11795;47.054;15.408;2022-10-16T07:30:00;49.7;;;42.7;;
23252;SDS011;11795;47.054;15.408;2022-10-16T07:32:01;49.7;;;42.7;;
23252;SDS011;11795;47.054;15.408;2022-10-16T07:34:00;46.6;;;41.5;;
23252;SDS011;11795;47.054;15.408;2022-10-16T07:36:00;46.6;;;41.5;;
23252;SDS011;11795;47.054;15.408;2022-10-16T07:38:00;48.1;;;41.0;;
23252;SDS011;11795;47.054;15.408;2022-10-16T07:40:00;48.1;;;41.0;;
23252;SDS011;11795;47.054;15.408;2022-10-16T07:42:00;48.1;;;41.0;;
23252;SDS011;11795;47.054;15.408;2022-10-16T07:44:00;51.0;;;42.9;;
23252;SDS011;11795;47.054;15.408;2022-10-16T07:46:00;51.0;;;42.9;;
23252;SDS011;11795;47.054;15.408;2022-10-16T07:48:00;43.4;;;38.7;;
23252;SDS011;11795;47.054;15.408;2022-10-16T07:50:00;43.4;;;38.7;;
23252;SDS011;11795;47.054;15.408;2022-10-16T07:52:00;43.4;;;38.7;;
23252;SDS011;11795;47.054;15.408;2022-10-16T07:54:00;41.3;;;36.8;;
23252;SDS011;11795;47.054;15.408;2022-10-16T07:56:00;41.3;;;36.8;;
23252;SDS011;11795;47.054;15.408;2022-10-16T07:58:00;42.0;;;37.4;;
23252;SDS011;11795;47.054;15.408;2022-10-16T08:00:00;42.0;;;37.4;;
23252;SDS011;11795;47.054;15.408;2022-10-16T08:02:00;42.0;;;37.4;;
23252;SDS011;11795;47.054;15.408;2022-10-16T08:04:00;39.4;;;35.2;;
23252;SDS011;11795;47.054;15.408;2022-10-16T08:06:00;39.4;;;35.2;;
23252;SDS011;11795;47.054;15.408;2022-10-16T08:08:00;42.1;;;37.5;;
23252;SDS011;11795;47.054;15.408;2022-10-16T08:10:00;42.1;;;37.5;;
23252;SDS011;11795;47.054;15.408;2022-10-16T08:12:00;42.1;;;37.5;;
23252;SDS011;11795;47.054;15.408;2022-10-16T08:14:00;41.1;;;36.7;;
23252;SDS011;11795;47.054;15.408;2022-10-16T08:16:00;41.1;;;36.7;;
23252;SDS011;11795;47.054;15.408;2022-10-16T08:18:01;43.9;;;39.2;;
23252;SDS011;11795;47.054;15.408;2022-10-16T08:20:00;43.9;;;39.2;;
23252;SDS011;11795;47.054;15.408;2022-10-16T08:22:00;43.9;;;39.2;;
23252;SDS011;11795;47.054;15.408;2022-10-16T08:24:00;42.8;;;38.1;;
23252;SDS011;11795;47.054;15.408;2022-10-16T08:26:02;42.8;;;38.1;;
23252;SDS011;11795;47.054;15.408;2022-10-16T08:28:00;42.6;;;38.0;;
23252;SDS011;11795;47.054;15.408;2022-10-16T08:30:00;42.6;;;38.0;;
23252;SDS011;11795;47.054;15.408;2022-10-16T08:32:00;42.6;;;38.0;;
23252;SDS011;11795;47.054;15.408;2022-10-16T08:34:00;38.7;;;34.6;;
23252;SDS011;11795;47.054;15.408;2022-10-16T08:36:00;38.7;;;34.6;;
23252;SDS011;11795;47.054;15.408;2022-10-16T08:38:01;37.7;;;33.7;;
23252;SDS011;11795;47.054;15.408;2022-10-16T08:40:00;37.7;;;33.7;;
23252;SDS011;11795;47.054;15.408;2022-10-16T08:42:04;37.7;;;33.7;;
23252;SDS011;11795;47.054;15.408;2022-10-16T08:44:05;37.5;;;33.5;;
23252;SDS011;11795;47.054;15.408;2022-10-16T08:46:06;37.5;;;33.5;;
23252;SDS011;11795;47.054;15.408;2022-10-16T08:48:02;35.2;;;31.5;;
23252;SDS011;11795;47.054;15.408;2022-10-16T08:50:00;35.2;;;31.5;;
23252;SDS011;11795;47.054;15.408;2022-10-16T08:52:00;35.2;;;31.5;;
23252;SDS011;11795;47.054;15.408;2022-10-16T08:54:01;31.7;;;28.4;;
23252;SDS011;11795;47.054;15.408;2022-10-16T08:56:00;31.7;;;28.4;;
23252;SDS011;11795;47.054;15.408;2022-10-16T08:58:00;32.5;;;29.2;;
23252;SDS011;11795;47.054;15.408;2022-10-16T09:00:05;32.5;;;29.2;;
23252;SDS011;11795;47.054;15.408;2022-10-16T09:02:01;32.5;;;29.2;;
23252;SDS011;11795;47.054;15.408;2022-10-16T09:04:05;31.7;;;28.5;;
23252;SDS011;11795;47.054;15.408;2022-10-16T09:06:05;31.7;;;28.5;;
23252;SDS011;11795;47.054;15.408;2022-10-16T09:08:03;30.3;;;27.2;;
23252;SDS011;11795;47.054;15.408;2022-10-16T09:10:04;30.3;;;27.2;;
23252;SDS011;11795;47.054;15.408;2022-10-16T09:12:02;30.3;;;27.2;;
23252;SDS011;11795;47.054;15.408;2022-10-16T09:14:02;27.4;;;24.6;;
23252;SDS011;11795;47.054;15.408;2022-10-16T09:16:02;27.4;;;24.6;;
23252;SDS011;11795;47.054;15.408;2022-10-16T09:18:01;27.4;;;24.7;;
23252;SDS011;11795;47.054;15.408;2022-10-16T09:20:04;27.4;;;24.7;;
23252;SDS011;11795;47.054;15.408;2022-10-16T09:22:00;27.4;;;24.7;;
23252;SDS011;11795;47.054;15.408;2022-10-16T09:24:04;25.7;;;23.1;;
23252;SDS011;11795;47.054;15.408;2022-10-16T09:26:00;25.7;;;23.1;;
23252;SDS011;11795;47.054;15.408;2022-10-16T09:28:00;27.1;;;24.3;;
23252;SDS011;11795;47.054;15.408;2022-10-16T09:30:00;27.1;;;24.3;;
23252;SDS011;11795;47.054;15.408;2022-10-16T09:32:06;27.1;;;24.3;;
23252;SDS011;11795;47.054;15.408;2022-10-16T09:34:00;23.3;;;21.0;;
23252;SDS011;11795;47.054;15.408;2022-10-16T09:36:00;23.3;;;21.0;;
23252;SDS011;11795;47.054;15.408;2022-10-16T09:38:00;23.8;;;21.4;;
23252;SDS011;11795;47.054;15.408;2022-10-16T09:40:00;23.8;;;21.4;;
23252;SDS011;11795;47.054;15.408;2022-10-16T09:42:00;23.8;;;21.4;;
23252;SDS011;11795;47.054;15.408;2022-10-16T09:44:02;22.9;;;20.6;;
23252;SDS011;11795;47.054;15.408;2022-10-16T09:46:00;22.9;;;20.6;;
23252;SDS011;11795;47.054;15.408;2022-10-16T09:48:01;23.3;;;21.0;;
23252;SDS011;11795;47.054;15.408;2022-10-16T09:50:03;23.3;;;21.0;;
23252;SDS011;11795;47.054;15.408;2022-10-16T09:52:03;23.3;;;21.0;;
23252;SDS011;11795;47.054;15.408;2022-10-16T09:54:00;23.4;;;21.0;;
23252;SDS011;11795;47.054;15.408;2022-10-16T09:56:00;23.4;;;21.0;;
23252;SDS011;11795;47.054;15.408;2022-10-16T09:58:00;23.4;;;21.1;;
23252;SDS011;11795;47.054;15.408;2022-10-16T10:00:00;23.4;;;21.1;;
23252;SDS011;11795;47.054;15.408;2022-10-16T10:02:03;23.4;;;21.1;;
23252;SDS011;11795;47.054;15.408;2022-10-16T10:04:02;22.4;;;20.1;;
23252;SDS011;11795;47.054;15.408;2022-10-16T10:06:06;22.4;;;20.1;;
23252;SDS011;11795;47.054;15.408;2022-10-16T10:08:00;20.4;;;18.4;;
23252;SDS011;11795;47.054;15.408;2022-10-16T10:10:01;20.4;;;18.4;;
23252;SDS011;11795;47.054;15.408;2022-10-16T10:12:00;20.4;;;18.4;;
23252;SDS011;11795;47.054;15.408;2022-10-16T10:14:03;20.6;;;18.6;;
23252;SDS011;11795;47.054;15.408;2022-10-16T10:16:00;20.6;;;18.6;;
23252;SDS011;11795;47.054;15.408;2022-10-16T10:18:01;21.4;;;19.3;;
23252;SDS011;11795;47.054;15.408;2022-10-16T10:20:11;21.4;;;19.3;;
23252;SDS011;11795;47.054;15.408;2022-10-16T10:22:00;21.4;;;19.3;;
23252;SDS011;11795;47.054;15.408;2022-10-16T10:24:00;20.7;;;18.7;;
23252;SDS011;11795;47.054;15.408;2022-10-16T10:26:01;20.7;;;18.7;;
23252;SDS011;11795;47.054;15.408;2022-10-16T10:28:06;19.4;;;17.6;;
23252;SDS011;11795;47.054;15.408;2022-10-16T10:30:01;19.4;;;17.6;;
23252;SDS011;11795;47.054;15.408;2022-10-16T10:32:02;19.4;;;17.6;;
23252;SDS011;11795;47.054;15.408;2022-10-16T10:34:01;18.3;;;16.5;;
23252;SDS011;11795;47.054;15.408;2022-10-16T10:36:03;18.3;;;16.5;;
23252;SDS011;11795;47.054;15.408;2022-10-16T10:38:02;17.2;;;15.5;;
23252;SDS011;11795;47.054;15.408;2022-10-16T10:40:02;17.2;;;15.5;;
23252;SDS011;11795;47.054;15.408;2022-10-16T10:42:04;17.2;;;15.5;;
23252;SDS011;11795;47.054;15.408;2022-10-16T10:44:01;16.9;;;15.3;;
23252;SDS011;11795;47.054;15.408;2022-10-16T10:46:01;16.9;;;15.3;;
23252;SDS011;11795;47.054;15.408;2022-10-16T10:48:06;16.9;;;15.3;;
23252;SDS011;11795;47.054;15.408;2022-10-16T10:50:02;18.2;;;16.4;;
23252;SDS011;11795;47.054;15.408;2022-10-16T10:52:02;18.2;;;16.4;;
23252;SDS011;11795;47.054;15.408;2022-10-16T10:54:03;16.6;;;15.0;;
23252;SDS011;11795;47.054;15.408;2022-10-16T10:56:05;16.6;;;15.0;;
23252;SDS011;11795;47.054;15.408;2022-10-16T10:58:05;16.6;;;15.0;;
23252;SDS011;11795;47.054;15.408;2022-10-16T11:00:02;16.3;;;14.8;;
23252;SDS011;11795;47.054;15.408;2022-10-16T11:02:00;16.3;;;14.8;;
23252;SDS011;11795;47.054;15.408;2022-10-16T11:04:05;16.8;;;14.9;;
23252;SDS011;11795;47.054;15.408;2022-10-16T11:06:00;16.8;;;14.9;;
23252;SDS011;11795;47.054;15.408;2022-10-16T11:08:00;16.8;;;14.9;;
23252;SDS011;11795;47.054;15.408;2022-10-16T11:10:02;16.5;;;14.9;;
23252;SDS011;11795;47.054;15.408;2022-10-16T11:12:01;16.5;;;14.9;;
23252;SDS011;11795;47.054;15.408;2022-10-16T11:14:01;15.6;;;14.2;;
23252;SDS011;11795;47.054;15.408;2022-10-16T11:16:01;15.6;;;14.2;;
23252;SDS011;11795;47.054;15.408;2022-10-16T11:18:02;15.6;;;14.2;;
23252;SDS011;11795;47.054;15.408;2022-10-16T11:20:02;15.9;;;14.5;;
23252;SDS011;11795;47.054;15.408;2022-10-16T11:22:01;15.9;;;14.5;;
23252;SDS011;11795;47.054;15.408;2022-10-16T11:24:01;16.4;;;14.8;;
23252;SDS011;11795;47.054;15.408;2022-10-16T11:26:00;16.4;;;14.8;;
23252;SDS011;11795;47.054;15.408;2022-10-16T11:28:01;16.4;;;14.8;;
23252;SDS011;11795;47.054;15.408;2022-10-16T11:30:02;16.1;;;14.6;;
23252;SDS011;11795;47.054;15.408;2022-10-16T11:32:01;16.1;;;14.6;;
23252;SDS011;11795;47.054;15.408;2022-10-16T11:34:01;16.1;;;14.5;;
23252;SDS011;11795;47.054;15.408;2022-10-16T11:36:01;16.1;;;14.5;;
23252;SDS011;11795;47.054;15.408;2022-10-16T11:38:00;16.1;;;14.5;;
23252;SDS011;11795;47.054;15.408;2022-10-16T11:40:03;17.0;;;15.3;;
23252;SDS011;11795;47.054;15.408;2022-10-16T11:42:02;17.0;;;15.3;;
23252;SDS011;11795;47.054;15.408;2022-10-16T11:44:05;16.7;;;15.1;;
23252;SDS011;11795;47.054;15.408;2022-10-16T11:46:01;16.7;;;15.1;;
23252;SDS011;11795;47.054;15.408;2022-10-16T11:48:00;16.7;;;15.1;;
23252;SDS011;11795;47.054;15.408;2022-10-16T11:50:01;16.3;;;14.8;;